createdAt,value
2018-08-18T00:00:50.909Z,73.19
2018-08-18T00:01:59.754Z,73.76
2018-08-18T00:03:02.637Z,73.24
2018-08-18T00:04:05.611Z,72.96
2018-08-18T00:05:08.808Z,73.28
2018-08-18T00:06:13.404Z,73.68
2018-08-18T00:07:16.308Z,73.48
2018-08-18T00:08:19.169Z,74.01
2018-08-18T00:09:22.067Z,73.47
2018-08-18T00:10:24.936Z,73.53
2018-08-18T00:11:28.113Z,73.68
2018-08-18T00:12:30.985Z,73.06
2018-08-18T00:13:35.610Z,74.19
2018-08-18T00:14:38.747Z,73.75
2018-08-18T00:15:41.584Z,74.34
2018-08-18T00:16:44.448Z,73.43
2018-08-18T00:17:47.605Z,73.73
2018-08-18T00:18:50.479Z,73.51
2018-08-18T00:19:53.342Z,73.71
2018-08-18T00:20:56.212Z,73.51
2018-08-18T00:21:59.092Z,74.22
2018-08-18T00:23:02.488Z,74.21
2018-08-18T00:24:07.762Z,74.14
2018-08-18T00:25:10.713Z,75.22
2018-08-18T00:26:13.602Z,75.75
2018-08-18T00:27:16.461Z,75.89
2018-08-18T00:28:20.464Z,75.92
2018-08-18T00:29:23.363Z,74.98
2018-08-18T00:30:27.367Z,75.07
2018-08-18T00:31:31.254Z,74.93
2018-08-18T00:32:34.121Z,74.48
2018-08-18T00:33:37.488Z,74.59
2018-08-18T00:34:46.243Z,75.06
2018-08-18T00:35:49.565Z,74.48
2018-08-18T00:36:52.487Z,74.55
2018-08-18T00:37:55.374Z,74.43
2018-08-18T00:38:59.740Z,74.33
2018-08-18T00:40:04.238Z,73.92
2018-08-18T00:41:07.093Z,73.84
2018-08-18T00:42:10.284Z,74.54
2018-08-18T00:43:13.154Z,74.80
2018-08-18T00:44:16.046Z,74.13
2018-08-18T00:45:18.953Z,75.40
2018-08-18T00:46:21.838Z,76.12
2018-08-18T00:47:24.725Z,76.60
2018-08-18T00:48:28.297Z,76.60
2018-08-18T00:49:31.181Z,76.46
2018-08-18T00:50:36.148Z,76.03
2018-08-18T00:51:41.627Z,75.26
2018-08-18T00:52:45.149Z,75.69
2018-08-18T00:53:48.312Z,75.69
2018-08-18T00:54:51.458Z,75.28
2018-08-18T00:55:54.324Z,74.66
2018-08-18T00:56:57.219Z,75.00
2018-08-18T00:58:00.138Z,74.76
2018-08-18T00:59:03.055Z,75.08
2018-08-18T01:00:05.895Z,74.46
2018-08-18T01:01:09.053Z,74.91
2018-08-18T01:02:11.912Z,75.12
2018-08-18T01:03:14.753Z,74.94
2018-08-18T01:04:17.666Z,75.39
2018-08-18T01:05:20.870Z,74.82
2018-08-18T01:06:24.411Z,75.77
2018-08-18T01:07:27.605Z,76.11
2018-08-18T01:08:32.297Z,75.46
2018-08-18T01:09:36.467Z,75.85
2018-08-18T01:10:43.012Z,76.43
2018-08-18T01:11:45.957Z,75.47
2018-08-18T01:12:48.892Z,76.04
2018-08-18T01:13:52.515Z,76.01
2018-08-18T01:14:55.718Z,76.20
2018-08-18T01:15:58.574Z,76.67
2018-08-18T01:17:01.448Z,76.25
2018-08-18T01:18:04.353Z,75.44
2018-08-18T01:19:07.274Z,76.18
2018-08-18T01:20:10.420Z,75.97
2018-08-18T01:21:13.305Z,75.45
2018-08-18T01:22:16.181Z,76.37
2018-08-18T01:23:19.114Z,76.30
2018-08-18T01:24:22.252Z,76.42
2018-08-18T01:25:25.351Z,75.95
2018-08-18T01:26:28.546Z,75.83
2018-08-18T01:27:31.553Z,75.77
2018-08-18T01:28:34.457Z,75.95
2018-08-18T01:29:37.347Z,75.73
2018-08-18T01:30:40.293Z,75.68
2018-08-18T01:31:43.158Z,76.30
2018-08-18T01:32:46.316Z,75.81
2018-08-18T01:33:50.268Z,76.75
2018-08-18T01:34:53.713Z,75.96
2018-08-18T01:35:57.188Z,76.79
2018-08-18T01:37:00.075Z,76.89
2018-08-18T01:38:03.937Z,76.87
2018-08-18T01:39:07.187Z,75.95
2018-08-18T01:40:10.068Z,76.44
2018-08-18T01:41:14.069Z,76.58
2018-08-18T01:42:16.971Z,76.69
2018-08-18T01:43:19.910Z,77.34
2018-08-18T01:44:24.070Z,76.67
2018-08-18T01:45:27.254Z,76.96
2018-08-18T01:46:30.126Z,76.44
2018-08-18T01:47:33.025Z,77.31
2018-08-18T01:48:36.642Z,76.74
2018-08-18T01:49:39.711Z,77.10
2018-08-18T01:50:42.725Z,76.70
2018-08-18T01:51:46.611Z,77.68
2018-08-18T01:52:49.495Z,76.87
2018-08-18T01:53:52.350Z,77.51
2018-08-18T01:54:55.233Z,77.05
2018-08-18T01:55:58.175Z,77.48
2018-08-18T01:57:05.349Z,76.95
2018-08-18T01:58:08.550Z,76.91
2018-08-18T01:59:11.430Z,76.93
2018-08-18T02:00:18.244Z,76.67
2018-08-18T02:01:21.134Z,77.44
2018-08-18T02:02:28.058Z,77.30
2018-08-18T02:03:31.648Z,76.85
2018-08-18T02:04:34.883Z,76.97
2018-08-18T02:05:40.524Z,77.27
2018-08-18T02:06:45.592Z,77.07
2018-08-18T02:07:50.880Z,76.75
2018-08-18T02:08:57.286Z,77.17
2018-08-18T02:10:00.297Z,77.17
2018-08-18T02:11:03.490Z,76.88
2018-08-18T02:12:06.372Z,77.09
2018-08-18T02:13:09.332Z,77.42
2018-08-18T02:14:17.158Z,77.68
2018-08-18T02:15:20.063Z,77.32
2018-08-18T02:16:22.974Z,77.53
2018-08-18T02:17:26.393Z,77.37
2018-08-18T02:18:29.304Z,78.00
2018-08-18T02:19:32.186Z,78.45
2018-08-18T02:20:35.106Z,77.96
2018-08-18T02:21:37.994Z,78.21
2018-08-18T02:22:41.069Z,78.49
2018-08-18T02:23:44.384Z,78.78
2018-08-18T02:24:47.498Z,79.26
2018-08-18T02:25:50.389Z,78.23
2018-08-18T02:26:53.387Z,78.72
2018-08-18T02:27:56.531Z,77.69
2018-08-18T02:28:59.596Z,77.80
2018-08-18T02:30:04.247Z,77.40
2018-08-18T02:31:07.228Z,78.14
2018-08-18T02:32:11.068Z,78.37
2018-08-18T02:33:14.031Z,77.73
2018-08-18T02:34:16.898Z,78.03
2018-08-18T02:35:19.919Z,77.97
2018-08-18T02:36:23.099Z,78.15
2018-08-18T02:37:26.486Z,78.51
2018-08-18T02:38:29.381Z,78.51
2018-08-18T02:39:32.299Z,78.54
2018-08-18T02:40:35.182Z,79.52
2018-08-18T02:41:38.222Z,79.97
2018-08-18T02:42:41.118Z,79.01
2018-08-18T02:43:43.974Z,79.39
2018-08-18T02:44:46.856Z,79.51
2018-08-18T02:45:49.877Z,79.02
2018-08-18T02:46:52.751Z,78.57
2018-08-18T02:48:00.315Z,78.84
2018-08-18T02:49:03.754Z,78.62
2018-08-18T02:50:06.627Z,78.94
2018-08-18T02:51:09.480Z,78.64
2018-08-18T02:52:16.316Z,78.44
2018-08-18T02:53:20.545Z,78.42
2018-08-18T02:54:24.591Z,78.39
2018-08-18T02:55:27.547Z,77.91
2018-08-18T02:56:35.317Z,78.79
2018-08-18T02:57:41.290Z,78.81
2018-08-18T02:58:48.757Z,79.61
2018-08-18T02:59:51.650Z,78.94
2018-08-18T03:00:54.827Z,79.34
2018-08-18T03:01:57.742Z,79.12
2018-08-18T03:03:01.207Z,79.59
2018-08-18T03:04:04.168Z,79.80
2018-08-18T03:05:07.179Z,78.86
2018-08-18T03:06:13.218Z,79.72
2018-08-18T03:07:16.397Z,79.08
2018-08-18T03:08:19.288Z,79.24
2018-08-18T03:09:22.374Z,79.26
2018-08-18T03:10:26.422Z,79.11
2018-08-18T03:11:30.230Z,79.31
2018-08-18T03:12:37.874Z,78.71
2018-08-18T03:13:41.029Z,79.18
2018-08-18T03:14:43.882Z,80.11
2018-08-18T03:15:46.902Z,79.86
2018-08-18T03:16:49.935Z,79.15
2018-08-18T03:17:52.842Z,80.09
2018-08-18T03:18:56.483Z,79.96
2018-08-18T03:19:59.361Z,79.42
2018-08-18T03:21:03.095Z,79.35
2018-08-18T03:22:06.116Z,79.54
2018-08-18T03:23:09.130Z,79.64
2018-08-18T03:24:12.547Z,80.20
2018-08-18T03:25:15.698Z,80.01
2018-08-18T03:26:18.558Z,79.57
2018-08-18T03:27:21.434Z,79.39
2018-08-18T03:28:24.374Z,79.09
2018-08-18T03:29:28.380Z,78.66
2018-08-18T03:30:31.257Z,78.75
2018-08-18T03:31:34.503Z,78.80
2018-08-18T03:32:37.368Z,78.59
2018-08-18T03:33:40.325Z,78.59
2018-08-18T03:34:43.231Z,78.27
2018-08-18T03:35:46.137Z,78.45
2018-08-18T03:36:51.091Z,78.50
2018-08-18T03:37:54.279Z,78.27
2018-08-18T03:38:57.793Z,77.78
2018-08-18T03:40:00.640Z,78.01
2018-08-18T03:41:03.530Z,78.65
2018-08-18T03:42:06.413Z,78.57
2018-08-18T03:43:09.332Z,79.28
2018-08-18T03:44:13.403Z,79.51
2018-08-18T03:45:16.316Z,79.40
2018-08-18T03:46:19.291Z,79.39
2018-08-18T03:47:22.396Z,78.60
2018-08-18T03:48:25.276Z,79.14
2018-08-18T03:49:28.179Z,79.04
2018-08-18T03:50:35.283Z,78.08
2018-08-18T03:51:44.639Z,78.95
2018-08-18T03:52:47.533Z,78.58
2018-08-18T03:53:50.444Z,78.23
2018-08-18T03:54:53.441Z,78.42
2018-08-18T03:55:56.415Z,78.49
2018-08-18T03:56:59.633Z,78.98
2018-08-18T03:58:02.523Z,78.65
2018-08-18T03:59:05.378Z,78.37
2018-08-18T04:00:08.276Z,78.86
2018-08-18T04:01:11.236Z,78.10
2018-08-18T04:02:14.117Z,78.12
2018-08-18T04:03:17.315Z,78.34
2018-08-18T04:04:21.240Z,78.50
2018-08-18T04:05:24.102Z,78.57
2018-08-18T04:06:26.993Z,78.24
2018-08-18T04:07:30.022Z,78.27
2018-08-18T04:08:32.912Z,77.87
2018-08-18T04:09:37.213Z,78.41
2018-08-18T04:10:40.148Z,78.20
2018-08-18T04:11:43.027Z,78.05
2018-08-18T04:12:45.902Z,78.08
2018-08-18T04:13:48.812Z,79.00
2018-08-18T04:14:52.270Z,78.69
2018-08-18T04:15:55.414Z,79.09
2018-08-18T04:16:58.308Z,79.32
2018-08-18T04:18:05.465Z,79.38
2018-08-18T04:19:08.351Z,79.33
2018-08-18T04:20:11.245Z,79.55
2018-08-18T04:21:14.099Z,79.46
2018-08-18T04:22:17.489Z,79.60
2018-08-18T04:23:20.443Z,78.49
2018-08-18T04:24:24.911Z,79.07
2018-08-18T04:25:28.024Z,78.95
2018-08-18T04:26:31.473Z,79.44
2018-08-18T04:27:37.112Z,78.99
2018-08-18T04:28:40.313Z,79.12
2018-08-18T04:29:43.223Z,79.11
2018-08-18T04:30:46.138Z,79.31
2018-08-18T04:31:49.042Z,79.14
2018-08-18T04:32:51.926Z,79.41
2018-08-18T04:33:54.790Z,79.13
2018-08-18T04:34:58.701Z,78.72
2018-08-18T04:36:03.267Z,78.67
2018-08-18T04:37:06.144Z,79.37
2018-08-18T04:38:09.060Z,79.25
2018-08-18T04:39:12.104Z,78.57
2018-08-18T04:40:14.961Z,79.14
2018-08-18T04:41:18.125Z,78.92
2018-08-18T04:42:20.988Z,79.45
2018-08-18T04:43:23.873Z,80.12
2018-08-18T04:44:26.778Z,80.14
2018-08-18T04:45:29.691Z,79.92
2018-08-18T04:46:32.563Z,79.44
2018-08-18T04:47:35.772Z,79.85
2018-08-18T04:48:38.660Z,79.79
2018-08-18T04:49:41.592Z,79.92
2018-08-18T04:50:44.445Z,79.00
2018-08-18T04:51:47.357Z,79.46
2018-08-18T04:52:50.304Z,79.20
2018-08-18T04:53:53.526Z,79.24
2018-08-18T04:54:56.394Z,79.03
2018-08-18T04:55:59.254Z,79.21
2018-08-18T04:57:02.316Z,79.10
2018-08-18T04:58:05.205Z,79.41
2018-08-18T04:59:08.165Z,78.94
2018-08-18T05:00:13.092Z,79.39
2018-08-18T05:01:16.055Z,79.08
2018-08-18T05:02:19.002Z,78.75
2018-08-18T05:03:21.937Z,78.38
2018-08-18T05:04:24.862Z,79.21
2018-08-18T05:05:28.939Z,78.79
2018-08-18T05:06:33.083Z,78.72
2018-08-18T05:07:40.272Z,77.70
2018-08-18T05:08:43.267Z,77.55
2018-08-18T05:09:47.637Z,78.41
2018-08-18T05:10:51.145Z,78.42
2018-08-18T05:11:54.428Z,78.32
2018-08-18T05:12:57.613Z,77.85
2018-08-18T05:14:00.514Z,77.88
2018-08-18T05:15:03.413Z,77.91
2018-08-18T05:16:06.282Z,77.65
2018-08-18T05:17:10.304Z,78.48
2018-08-18T05:18:13.885Z,78.84
2018-08-18T05:19:17.210Z,78.75
2018-08-18T05:20:20.107Z,78.18
2018-08-18T05:21:24.009Z,78.79
2018-08-18T05:22:26.895Z,78.04
2018-08-18T05:23:29.769Z,77.83
2018-08-18T05:24:32.663Z,78.93
2018-08-18T05:25:40.134Z,78.02
2018-08-18T05:26:43.041Z,78.97
2018-08-18T05:27:46.588Z,79.17
2018-08-18T05:28:49.737Z,78.48
2018-08-18T05:29:53.550Z,79.09
2018-08-18T05:33:37.171Z,78.76
2018-08-18T05:34:40.336Z,78.73
2018-08-18T05:35:46.283Z,78.49
2018-08-18T05:36:49.192Z,78.60
2018-08-18T05:37:52.216Z,78.72
2018-08-18T05:38:55.462Z,78.40
2018-08-18T05:39:58.853Z,78.80
2018-08-18T05:41:02.964Z,79.19
2018-08-18T05:42:06.064Z,78.63
2018-08-18T05:43:09.380Z,78.39
2018-08-18T05:44:12.375Z,78.51
2018-08-18T05:45:19.546Z,78.61
2018-08-18T05:46:22.545Z,77.98
2018-08-18T05:47:25.958Z,77.92
2018-08-18T05:48:28.937Z,77.61
2018-08-18T05:49:31.822Z,77.75
2018-08-18T05:50:34.997Z,77.79
2018-08-18T05:51:45.402Z,77.10
2018-08-18T05:52:48.270Z,77.16
2018-08-18T05:53:51.626Z,76.34
2018-08-18T05:54:54.571Z,76.66
2018-08-18T05:55:57.786Z,75.77
2018-08-18T05:57:00.745Z,75.88
2018-08-18T05:58:03.906Z,75.97
2018-08-18T05:59:06.817Z,75.45
2018-08-18T06:00:14.698Z,75.42
2018-08-18T06:01:22.377Z,76.18
2018-08-18T06:02:25.310Z,76.04
2018-08-18T06:03:28.165Z,75.85
2018-08-18T06:04:31.395Z,76.00
2018-08-18T06:05:37.268Z,75.74
2018-08-18T06:06:41.138Z,75.67
2018-08-18T06:07:44.127Z,75.09
2018-08-18T06:08:47.042Z,75.63
2018-08-18T06:09:50.138Z,75.27
2018-08-18T06:10:53.671Z,75.00
2018-08-18T06:12:00.641Z,74.83
2018-08-18T06:13:12.474Z,74.42
2018-08-18T06:14:16.206Z,74.33
2018-08-18T06:15:19.122Z,74.07
2018-08-18T06:16:22.071Z,75.09
2018-08-18T06:17:30.057Z,74.46
2018-08-18T06:18:33.018Z,74.39
2018-08-18T06:19:35.921Z,74.63
2018-08-18T06:20:38.825Z,74.22
2018-08-18T06:21:41.673Z,74.01
2018-08-18T06:22:44.574Z,73.33
2018-08-18T06:23:47.904Z,73.17
2018-08-18T06:24:50.800Z,72.73
2018-08-18T06:25:53.649Z,72.96
2018-08-18T06:26:56.574Z,72.95
2018-08-18T06:27:59.563Z,72.85
2018-08-18T06:29:02.482Z,72.16
2018-08-18T06:30:05.716Z,71.87
2018-08-18T06:31:08.827Z,71.32
2018-08-18T06:32:11.856Z,71.56
2018-08-18T06:33:16.196Z,70.57
2018-08-18T06:34:19.349Z,70.26
2018-08-18T06:35:22.439Z,70.79
2018-08-18T06:36:25.835Z,70.11
2018-08-18T06:37:28.824Z,69.50
2018-08-18T06:38:32.020Z,69.60
2018-08-18T06:39:35.271Z,70.12
2018-08-18T06:40:38.326Z,69.39
2018-08-18T06:41:41.378Z,69.19
2018-08-18T06:42:45.850Z,68.93
2018-08-18T06:43:48.841Z,69.95
2018-08-18T06:44:51.901Z,71.48
2018-08-18T06:45:54.950Z,71.38
2018-08-18T06:46:58.567Z,70.72
2018-08-18T06:48:01.885Z,72.35
2018-08-18T06:49:04.953Z,71.93
2018-08-18T06:50:08.084Z,72.36
2018-08-18T06:51:11.058Z,71.37
2018-08-18T06:52:17.940Z,71.85
2018-08-18T06:53:21.151Z,71.07
2018-08-18T06:54:24.185Z,70.43
2018-08-18T06:55:27.496Z,70.23
2018-08-18T06:56:30.528Z,69.73
2018-08-18T06:57:33.550Z,69.58
2018-08-18T06:58:36.807Z,69.01
2018-08-18T06:59:39.897Z,68.85
2018-08-18T07:00:43.000Z,69.04
2018-08-18T07:01:46.284Z,68.63
2018-08-18T07:02:49.234Z,67.97
2018-08-18T07:03:52.202Z,67.38
2018-08-18T07:04:55.166Z,66.69
2018-08-18T07:05:58.215Z,66.33
2018-08-18T07:07:01.303Z,65.40
2018-08-18T07:08:04.329Z,66.22
2018-08-18T07:09:07.477Z,64.55
2018-08-18T07:10:11.196Z,64.44
2018-08-18T07:11:14.222Z,63.81
2018-08-18T07:12:17.266Z,64.00
2018-08-18T07:13:20.254Z,63.78
2018-08-18T07:14:23.548Z,63.98
2018-08-18T07:15:27.099Z,63.59
2018-08-18T07:16:30.714Z,62.74
2018-08-18T07:17:34.108Z,62.94
2018-08-18T07:18:37.243Z,62.12
2018-08-18T07:19:40.267Z,63.10
2018-08-18T07:20:43.961Z,63.14
2018-08-18T07:21:48.405Z,63.92
2018-08-18T07:22:51.802Z,63.56
2018-08-18T07:23:54.904Z,63.84
2018-08-18T07:24:58.058Z,62.32
2018-08-18T07:26:03.781Z,61.27
2018-08-18T07:27:06.968Z,60.61
2018-08-18T07:28:10.851Z,61.22
2018-08-18T07:29:13.790Z,59.89
2018-08-18T07:30:18.335Z,59.34
2018-08-18T07:31:21.249Z,59.38
2018-08-18T07:32:24.317Z,59.57
2018-08-18T07:33:27.548Z,59.03
2018-08-18T07:34:31.445Z,58.97
2018-08-18T07:35:34.417Z,59.97
2018-08-18T07:36:37.319Z,57.74
2018-08-18T07:37:40.211Z,57.92
2018-08-18T07:38:43.091Z,57.96
2018-08-18T07:39:46.392Z,58.50
2018-08-18T07:40:51.927Z,57.40
2018-08-18T07:41:54.848Z,57.18
2018-08-18T07:43:12.477Z,57.86
2018-08-18T07:44:15.465Z,56.60
2018-08-18T07:45:18.480Z,56.21
2018-08-18T07:46:25.022Z,55.83
2018-08-18T07:47:35.511Z,54.68
2018-08-18T07:48:39.465Z,53.52
2018-08-18T07:49:43.505Z,53.19
2018-08-18T07:50:46.469Z,53.75
2018-08-18T07:51:49.459Z,53.18
2018-08-18T07:52:53.558Z,53.00
2018-08-18T07:53:56.467Z,51.69
2018-08-18T07:54:59.541Z,52.44
2018-08-18T07:56:04.718Z,52.70
2018-08-18T07:57:08.736Z,54.34
2018-08-18T07:58:11.858Z,53.02
2018-08-18T07:59:15.211Z,52.60
2018-08-18T08:00:18.245Z,52.62
2018-08-18T08:01:22.917Z,54.19
2018-08-18T08:02:26.984Z,53.64
2018-08-18T08:03:34.556Z,53.66
2018-08-18T08:04:38.624Z,52.20
2018-08-18T08:05:42.295Z,52.44
2018-08-18T08:06:45.358Z,52.32
2018-08-18T08:07:48.276Z,52.51
2018-08-18T08:08:51.831Z,52.08
2018-08-18T08:09:54.875Z,51.17
2018-08-18T08:11:03.583Z,51.21
2018-08-18T08:12:06.501Z,52.00
2018-08-18T08:13:10.247Z,52.11
2018-08-18T08:14:14.641Z,51.34
2018-08-18T08:15:19.502Z,50.71
2018-08-18T08:16:24.358Z,51.37
2018-08-18T08:17:28.433Z,50.69
2018-08-18T08:18:31.412Z,49.81
2018-08-18T08:19:35.032Z,50.20
2018-08-18T08:20:39.769Z,49.21
2018-08-18T08:21:42.741Z,48.78
2018-08-18T08:22:46.277Z,47.75
2018-08-18T08:23:51.003Z,48.50
2018-08-18T08:24:54.044Z,48.51
2018-08-18T08:25:57.974Z,48.52
2018-08-18T08:27:04.505Z,50.60
2018-08-18T08:28:07.479Z,51.27
2018-08-18T08:29:11.524Z,50.02
2018-08-18T08:30:15.311Z,50.74
2018-08-18T08:31:18.464Z,51.15
2018-08-18T08:33:28.918Z,50.51
2018-08-18T08:34:36.176Z,49.21
2018-08-18T08:35:39.237Z,48.26
2018-08-18T08:36:42.683Z,48.90
2018-08-18T08:37:46.213Z,48.22
2018-08-18T08:38:49.158Z,47.72
2018-08-18T08:39:52.084Z,47.50
2018-08-18T08:40:55.227Z,47.66
2018-08-18T08:41:58.434Z,47.20
2018-08-18T08:43:08.209Z,47.90
2018-08-18T08:44:11.296Z,47.35
2018-08-18T08:45:15.070Z,46.00
2018-08-18T08:46:18.072Z,46.15
2018-08-18T08:47:21.148Z,45.07
2018-08-18T08:48:24.463Z,44.63
2018-08-18T08:49:27.488Z,45.55
2018-08-18T08:50:31.413Z,44.52
2018-08-18T08:51:34.435Z,44.17
2018-08-18T08:52:42.332Z,42.90
2018-08-18T08:53:45.426Z,43.00
2018-08-18T08:54:48.808Z,41.44
2018-08-18T08:55:52.362Z,40.62
2018-08-18T08:56:56.429Z,42.09
2018-08-18T08:58:00.489Z,42.33
2018-08-18T08:59:04.611Z,40.82
2018-08-18T09:00:08.334Z,41.91
2018-08-18T09:01:11.661Z,40.54
2018-08-18T09:02:15.067Z,41.79
2018-08-18T09:03:18.224Z,39.27
2018-08-18T09:04:22.031Z,40.76
2018-08-18T09:05:25.568Z,41.34
2018-08-18T09:06:28.871Z,39.88
2018-08-18T09:07:33.123Z,40.06
2018-08-18T09:08:36.835Z,40.73
2018-08-18T09:09:44.640Z,40.24
2018-08-18T09:10:49.351Z,41.10
2018-08-18T09:11:52.472Z,41.42
2018-08-18T09:12:55.409Z,40.95
2018-08-18T09:14:01.044Z,41.55
2018-08-18T09:15:04.111Z,40.70
2018-08-18T09:16:07.832Z,40.29
2018-08-18T09:17:10.776Z,40.70
2018-08-18T09:18:13.721Z,42.07
2018-08-18T09:19:16.945Z,42.10
2018-08-18T09:20:20.624Z,41.09
2018-08-18T09:21:23.632Z,42.06
2018-08-18T09:22:27.811Z,42.02
2018-08-18T09:23:34.735Z,41.23
2018-08-18T09:24:37.684Z,40.66
2018-08-18T09:25:41.067Z,41.19
2018-08-18T09:26:48.811Z,39.77
2018-08-18T09:27:55.366Z,38.62
2018-08-18T09:28:58.345Z,39.05
2018-08-18T09:30:01.393Z,37.93
2018-08-18T09:31:04.541Z,35.92
2018-08-18T09:32:08.672Z,35.86
2018-08-18T09:33:11.634Z,35.17
2018-08-18T09:34:14.591Z,34.58
2018-08-18T09:35:18.751Z,34.80
2018-08-18T09:36:21.764Z,37.65
2018-08-18T09:37:24.716Z,38.67
2018-08-18T09:38:27.892Z,38.05
2018-08-18T09:39:34.267Z,36.42
2018-08-18T09:40:37.158Z,38.87
2018-08-18T09:41:40.688Z,37.87
2018-08-18T09:42:43.637Z,40.04
2018-08-18T09:43:46.547Z,41.71
2018-08-18T09:44:53.740Z,41.58
2018-08-18T09:45:58.041Z,41.13
2018-08-18T09:47:02.996Z,41.13
2018-08-18T09:49:14.879Z,39.94
2018-08-18T09:50:17.821Z,38.77
2018-08-18T09:51:21.201Z,39.13
2018-08-18T09:52:24.196Z,39.21
2018-08-18T09:53:27.188Z,37.42
2018-08-18T09:54:31.144Z,38.27
2018-08-18T09:55:34.033Z,39.42
2018-08-18T09:56:38.599Z,38.87
2018-08-18T09:57:42.110Z,37.16
2018-08-18T09:58:45.077Z,36.33
2018-08-18T09:59:48.001Z,37.13
2018-08-18T10:00:51.607Z,35.61
2018-08-18T10:01:54.701Z,35.79
2018-08-18T10:02:58.720Z,34.68
2018-08-18T10:04:02.090Z,34.58
2018-08-18T10:05:05.076Z,34.56
2018-08-18T10:06:08.251Z,33.64
2018-08-18T10:07:11.225Z,33.15
2018-08-18T10:08:14.133Z,34.35
2018-08-18T10:09:19.120Z,34.55
2018-08-18T10:10:26.480Z,34.22
2018-08-18T10:11:29.444Z,34.89
2018-08-18T10:12:32.371Z,34.50
2018-08-18T10:13:37.083Z,33.09
2018-08-18T10:14:40.713Z,33.28
2018-08-18T10:15:44.786Z,33.58
2018-08-18T10:16:48.982Z,33.49
2018-08-18T10:17:51.925Z,33.84
2018-08-18T10:18:54.807Z,33.23
2018-08-18T10:19:57.710Z,32.28
2018-08-18T10:21:01.966Z,32.74
2018-08-18T10:22:04.910Z,32.94
2018-08-18T10:23:11.500Z,32.87
2018-08-18T10:24:14.556Z,32.50
2018-08-18T10:25:19.144Z,32.42
2018-08-18T10:27:31.476Z,32.60
2018-08-18T10:28:35.473Z,33.53
2018-08-18T10:29:38.849Z,33.88
2018-08-18T10:32:50.760Z,35.00
2018-08-18T10:33:55.747Z,35.61
2018-08-18T10:34:58.617Z,34.10
2018-08-18T10:37:21.370Z,37.80
2018-08-18T10:38:24.263Z,39.19
2018-08-18T10:39:27.794Z,38.98
2018-08-18T10:40:30.748Z,38.61
2018-08-18T10:41:34.770Z,38.13
2018-08-18T10:42:37.750Z,36.46
2018-08-18T10:43:41.281Z,35.20
2018-08-18T10:44:49.492Z,36.67
2018-08-18T10:45:54.952Z,36.54
2018-08-18T10:46:57.956Z,38.12
2018-08-18T10:48:02.568Z,40.88
2018-08-18T10:49:06.381Z,39.46
2018-08-18T10:50:09.421Z,38.80
2018-08-18T10:51:14.170Z,37.02
2018-08-18T10:52:17.079Z,35.64
2018-08-18T10:53:21.032Z,34.63
2018-08-18T10:54:23.955Z,33.25
2018-08-18T10:55:27.496Z,33.09
2018-08-18T10:56:31.486Z,34.04
2018-08-18T10:57:34.501Z,36.83
2018-08-18T10:58:37.589Z,35.56
2018-08-18T10:59:43.989Z,36.78
2018-08-18T11:00:48.138Z,36.15
2018-08-18T11:01:55.548Z,36.75
2018-08-18T11:02:59.744Z,35.35
2018-08-18T11:04:04.617Z,34.90
2018-08-18T11:05:07.784Z,35.95
2018-08-18T11:06:10.924Z,35.79
2018-08-18T11:07:13.861Z,35.42
2018-08-18T11:08:18.005Z,35.97
2018-08-18T11:09:21.918Z,35.87
2018-08-18T11:10:25.032Z,34.53
2018-08-18T11:11:28.139Z,35.60
2018-08-18T11:12:32.819Z,36.66
2018-08-18T11:13:35.933Z,36.82
2018-08-18T11:14:40.484Z,34.89
2018-08-18T11:15:44.983Z,34.24
2018-08-18T11:16:47.872Z,33.30
2018-08-18T11:17:50.756Z,33.88
2018-08-18T11:18:55.428Z,33.79
2018-08-18T11:20:03.095Z,33.56
2018-08-18T11:21:12.157Z,33.70
2018-08-18T11:22:15.057Z,33.15
2018-08-18T11:23:18.059Z,35.76
2018-08-18T11:24:21.144Z,35.94
2018-08-18T11:25:24.141Z,36.83
2018-08-18T11:26:28.596Z,37.18
2018-08-18T11:27:34.685Z,36.64
2018-08-18T11:28:37.741Z,34.64
2018-08-18T11:29:41.933Z,35.27
2018-08-18T11:30:49.548Z,36.09
2018-08-18T11:31:52.940Z,36.32
2018-08-18T11:32:57.103Z,35.84
2018-08-18T11:34:00.426Z,34.73
2018-08-18T11:35:07.476Z,34.54
2018-08-18T11:36:12.612Z,34.18
2018-08-18T11:37:15.553Z,33.30
2018-08-18T11:38:18.479Z,32.06
2018-08-18T11:39:21.415Z,33.70
2018-08-18T11:40:25.587Z,34.05
2018-08-18T11:41:29.537Z,35.42
2018-08-18T11:42:32.608Z,35.83
2018-08-18T11:43:37.244Z,35.26
2018-08-18T11:44:44.463Z,34.99
2018-08-18T11:45:48.793Z,35.27
2018-08-18T11:46:53.254Z,33.84
2018-08-18T11:47:57.221Z,32.84
2018-08-18T11:49:01.104Z,33.18
2018-08-18T11:50:04.680Z,33.18
2018-08-18T11:51:08.487Z,32.90
2018-08-18T11:52:12.332Z,31.14
2018-08-18T11:53:15.844Z,31.36
2018-08-18T11:54:25.516Z,32.35
2018-08-18T11:55:28.502Z,34.08
2018-08-18T11:56:33.875Z,34.17
2018-08-18T11:57:36.967Z,33.48
2018-08-18T11:58:39.988Z,32.57
2018-08-18T11:59:44.213Z,31.87
2018-08-18T12:01:01.294Z,31.76
2018-08-18T12:02:04.490Z,30.83
2018-08-18T12:03:13.464Z,31.47
2018-08-18T12:04:16.432Z,31.88
2018-08-18T12:05:19.401Z,32.90
2018-08-18T12:06:22.708Z,33.06
2018-08-18T12:07:25.659Z,32.71
2018-08-18T12:08:31.700Z,32.45
2018-08-18T12:09:34.812Z,32.03
2018-08-18T12:10:37.847Z,31.30
2018-08-18T12:11:41.705Z,31.75
2018-08-18T12:12:45.091Z,31.40
2018-08-18T12:13:49.562Z,30.93
2018-08-18T12:14:52.551Z,31.09
2018-08-18T12:16:00.318Z,30.71
2018-08-18T12:17:04.214Z,30.96
2018-08-18T12:18:07.134Z,30.18
2018-08-18T12:19:11.283Z,31.59
2018-08-18T12:20:14.356Z,32.84
2018-08-18T12:21:17.513Z,32.18
2018-08-18T12:22:20.442Z,32.12
2018-08-18T12:23:23.370Z,31.27
2018-08-18T12:24:26.344Z,31.17
2018-08-18T12:25:30.409Z,30.36
2018-08-18T12:26:34.726Z,29.16
2018-08-18T12:27:38.265Z,27.94
2018-08-18T12:28:46.177Z,28.62
2018-08-18T12:29:50.698Z,28.89
2018-08-18T12:30:53.549Z,28.78
2018-08-18T12:31:56.848Z,29.19
2018-08-18T12:32:59.765Z,29.32
2018-08-18T12:34:02.713Z,30.02
2018-08-18T12:35:05.631Z,31.15
2018-08-18T12:36:08.676Z,32.58
2018-08-18T12:37:12.127Z,32.82
2018-08-18T12:38:15.523Z,31.16
2018-08-18T12:39:18.956Z,30.59
2018-08-18T12:40:21.942Z,29.82
2018-08-18T12:41:24.826Z,31.07
2018-08-18T12:42:28.793Z,31.63
2018-08-18T12:43:35.092Z,29.76
2018-08-18T12:44:38.254Z,29.99
2018-08-18T12:45:46.505Z,29.50
2018-08-18T12:46:50.392Z,28.50
2018-08-18T12:47:53.265Z,28.08
2018-08-18T12:48:56.202Z,28.79
2018-08-18T12:49:59.165Z,28.13
2018-08-18T12:51:02.344Z,28.25
2018-08-18T12:52:05.229Z,27.79
2018-08-18T12:53:09.745Z,29.22
2018-08-18T12:54:12.693Z,29.11
2018-08-18T12:55:18.017Z,29.73
2018-08-18T12:56:21.729Z,28.75
2018-08-18T12:57:27.721Z,28.67
2018-08-18T12:58:32.129Z,29.48
2018-08-18T12:59:35.103Z,29.92
2018-08-18T13:00:38.072Z,29.78
2018-08-18T13:01:49.258Z,28.77
2018-08-18T13:02:53.136Z,28.37
2018-08-18T13:03:56.445Z,29.04
2018-08-18T13:04:59.418Z,27.57
2018-08-18T13:06:03.954Z,28.75
2018-08-18T13:07:06.883Z,28.31
2018-08-18T13:08:09.777Z,29.04
2018-08-18T13:09:14.818Z,29.33
2018-08-18T13:10:19.909Z,28.65
2018-08-18T13:11:23.149Z,28.20
2018-08-18T13:12:27.941Z,29.63
2018-08-18T13:13:31.778Z,30.91
2018-08-18T13:14:34.705Z,29.88
2018-08-18T13:15:43.701Z,29.42
2018-08-18T13:16:47.725Z,29.67
2018-08-18T13:17:50.707Z,28.12
2018-08-18T13:18:55.366Z,28.39
2018-08-18T13:19:59.461Z,28.27
2018-08-18T13:21:04.966Z,29.20
2018-08-18T13:22:08.528Z,28.02
2018-08-18T13:23:12.430Z,29.35
2018-08-18T13:24:16.138Z,29.16
2018-08-18T13:25:20.711Z,28.95
2018-08-18T13:26:24.824Z,28.61
2018-08-18T13:27:27.874Z,28.77
2018-08-18T13:28:30.890Z,29.18
2018-08-18T13:29:34.142Z,30.01
2018-08-18T13:30:37.038Z,29.95
2018-08-18T13:31:41.798Z,30.26
2018-08-18T13:32:45.717Z,30.45
2018-08-18T13:33:48.601Z,31.12
2018-08-18T13:34:52.490Z,29.69
2018-08-18T13:35:56.620Z,29.01
2018-08-18T13:37:00.166Z,28.13
2018-08-18T13:38:04.006Z,28.60
2018-08-18T13:39:08.002Z,28.20
2018-08-18T13:40:13.158Z,28.22
2018-08-18T13:41:16.107Z,27.76
2018-08-18T13:42:20.945Z,27.40
2018-08-18T13:43:23.969Z,27.43
2018-08-18T13:44:31.745Z,25.68
2018-08-18T13:45:40.505Z,24.83
2018-08-18T13:46:43.460Z,24.60
2018-08-18T13:47:46.693Z,25.56
2018-08-18T13:48:54.450Z,25.03
2018-08-18T13:50:02.221Z,26.07
2018-08-18T13:51:05.114Z,26.00